CheckWX is a tool to help pilots better visualize weather data.  It is not intended as a substitute for an official pre-flight weather briefing.

08:59:07 UTC

KJVL METAR
Southern Wisconsin Regional Airport
Janesville, Wisconsin, USA
Current

24 mins ago

KJVL 220835Z AUTO 00000KT 10SM SCT120 M09/M11 A3040 RMK AO2
Observed
Feb-22 @ 08:35 UTC
Visibility
10 SM
Flight Rules
VFR
Cloud Levels
  • Scattered at 12,000' AGL
Temperature
-9°C / 16°F
Dewpoint
-11°C / 12°F
Humidity
86%
Altimeter
30.4" Hg
Pressure
1029.41 hPa
Previous

44 mins ago

KJVL 220815Z AUTO 00000KT 10SM SCT120 M08/M10 A3039 RMK AO2
Observed
Feb-22 @ 08:15 UTC
Visibility
10 SM
Flight Rules
VFR
Cloud Levels
  • Scattered at 12,000' AGL
Temperature
-8°C / 18°F
Dewpoint
-10°C / 14°F
Humidity
86%
Altimeter
30.39" Hg
Pressure
1029.11 hPa
Previous

1 hour ago

KJVL 220755Z AUTO 00000KT 10SM CLR M10/M11 A3039 RMK AO2
Observed
Feb-22 @ 07:55 UTC
Visibility
10 SM
Flight Rules
VFR
Cloud Levels
  • Clear skies
Temperature
-10°C / 14°F
Dewpoint
-11°C / 12°F
Humidity
92%
Altimeter
30.39" Hg
Pressure
1029.11 hPa